sensor_id;sensor_type;location;lat;lon;timestamp;P1;durP1;ratioP1;P2;durP2;ratioP2
55641;SDS011;41509;53.108;6.100;2024-01-30T00:00:24;20.25;;;10.52;;
55641;SDS011;41509;53.108;6.100;2024-01-30T00:02:50;19.88;;;10.95;;
55641;SDS011;41509;53.108;6.100;2024-01-30T00:07:50;20.27;;;10.93;;
55641;SDS011;41509;53.108;6.100;2024-01-30T00:10:16;19.40;;;10.68;;
55641;SDS011;41509;53.108;6.100;2024-01-30T00:12:45;19.15;;;10.75;;
55641;SDS011;41509;53.108;6.100;2024-01-30T00:15:11;19.30;;;11.48;;
55641;SDS011;41509;53.108;6.100;2024-01-30T00:17:37;24.23;;;11.97;;
55641;SDS011;41509;53.108;6.100;2024-01-30T00:20:03;23.57;;;11.87;;
55641;SDS011;41509;53.108;6.100;2024-01-30T00:22:33;21.98;;;11.65;;
55641;SDS011;41509;53.108;6.100;2024-01-30T00:24:59;21.95;;;11.30;;
55641;SDS011;41509;53.108;6.100;2024-01-30T00:27:25;18.80;;;10.52;;
55641;SDS011;41509;53.108;6.100;2024-01-30T00:29:54;21.70;;;11.50;;
55641;SDS011;41509;53.108;6.100;2024-01-30T00:32:20;22.47;;;11.50;;
55641;SDS011;41509;53.108;6.100;2024-01-30T00:34:45;21.27;;;11.27;;
55641;SDS011;41509;53.108;6.100;2024-01-30T00:37:11;19.73;;;11.17;;
55641;SDS011;41509;53.108;6.100;2024-01-30T00:39:37;25.93;;;12.67;;
55641;SDS011;41509;53.108;6.100;2024-01-30T00:42:02;19.20;;;10.77;;
55641;SDS011;41509;53.108;6.100;2024-01-30T00:44:28;21.20;;;10.90;;
55641;SDS011;41509;53.108;6.100;2024-01-30T00:46:54;21.37;;;11.40;;
55641;SDS011;41509;53.108;6.100;2024-01-30T00:49:19;22.40;;;11.93;;
55641;SDS011;41509;53.108;6.100;2024-01-30T00:51:46;24.70;;;11.17;;
55641;SDS011;41509;53.108;6.100;2024-01-30T00:54:11;19.83;;;10.40;;
55641;SDS011;41509;53.108;6.100;2024-01-30T00:56:40;18.60;;;11.57;;
55641;SDS011;41509;53.108;6.100;2024-01-30T00:59:05;19.73;;;10.30;;
55641;SDS011;41509;53.108;6.100;2024-01-30T01:01:31;19.93;;;11.43;;
55641;SDS011;41509;53.108;6.100;2024-01-30T01:03:57;18.83;;;11.03;;
55641;SDS011;41509;53.108;6.100;2024-01-30T01:06:28;20.40;;;10.93;;
55641;SDS011;41509;53.108;6.100;2024-01-30T01:08:53;24.30;;;11.80;;
55641;SDS011;41509;53.108;6.100;2024-01-30T01:11:19;26.03;;;11.87;;
55641;SDS011;41509;53.108;6.100;2024-01-30T01:13:47;20.88;;;11.43;;
55641;SDS011;41509;53.108;6.100;2024-01-30T01:16:13;24.25;;;11.68;;
55641;SDS011;41509;53.108;6.100;2024-01-30T01:18:38;19.30;;;10.77;;
55641;SDS011;41509;53.108;6.100;2024-01-30T01:21:04;21.17;;;10.20;;
55641;SDS011;41509;53.108;6.100;2024-01-30T01:23:30;20.13;;;11.77;;
55641;SDS011;41509;53.108;6.100;2024-01-30T01:25:55;19.20;;;10.10;;
55641;SDS011;41509;53.108;6.100;2024-01-30T01:28:21;22.13;;;10.87;;
55641;SDS011;41509;53.108;6.100;2024-01-30T01:30:49;22.43;;;12.23;;
55641;SDS011;41509;53.108;6.100;2024-01-30T01:33:15;18.67;;;10.60;;
55641;SDS011;41509;53.108;6.100;2024-01-30T01:35:41;22.30;;;11.53;;
55641;SDS011;41509;53.108;6.100;2024-01-30T01:38:06;22.10;;;10.63;;
55641;SDS011;41509;53.108;6.100;2024-01-30T01:40:32;21.40;;;10.33;;
55641;SDS011;41509;53.108;6.100;2024-01-30T01:42:58;20.53;;;10.77;;
55641;SDS011;41509;53.108;6.100;2024-01-30T01:45:26;19.40;;;10.93;;
55641;SDS011;41509;53.108;6.100;2024-01-30T01:47:51;19.80;;;11.45;;
55641;SDS011;41509;53.108;6.100;2024-01-30T01:50:18;26.40;;;10.77;;
55641;SDS011;41509;53.108;6.100;2024-01-30T01:52:44;19.95;;;10.85;;
55641;SDS011;41509;53.108;6.100;2024-01-30T01:55:15;17.17;;;10.45;;
55641;SDS011;41509;53.108;6.100;2024-01-30T01:57:43;20.35;;;11.25;;
55641;SDS011;41509;53.108;6.100;2024-01-30T02:00:09;22.70;;;10.05;;
55641;SDS011;41509;53.108;6.100;2024-01-30T02:02:39;18.73;;;10.65;;
55641;SDS011;41509;53.108;6.100;2024-01-30T02:05:08;22.13;;;11.50;;
55641;SDS011;41509;53.108;6.100;2024-01-30T02:07:34;18.53;;;10.13;;
55641;SDS011;41509;53.108;6.100;2024-01-30T02:10:00;22.00;;;11.23;;
55641;SDS011;41509;53.108;6.100;2024-01-30T02:12:25;19.83;;;10.63;;
55641;SDS011;41509;53.108;6.100;2024-01-30T02:14:51;19.87;;;10.97;;
55641;SDS011;41509;53.108;6.100;2024-01-30T02:17:17;22.33;;;10.83;;
55641;SDS011;41509;53.108;6.100;2024-01-30T02:19:42;19.27;;;11.07;;
55641;SDS011;41509;53.108;6.100;2024-01-30T02:22:08;24.10;;;11.73;;
55641;SDS011;41509;53.108;6.100;2024-01-30T02:24:34;22.02;;;11.15;;
55641;SDS011;41509;53.108;6.100;2024-01-30T02:27:00;21.23;;;11.07;;
55641;SDS011;41509;53.108;6.100;2024-01-30T02:29:25;24.20;;;11.03;;
55641;SDS011;41509;53.108;6.100;2024-01-30T02:31:51;21.47;;;10.93;;
55641;SDS011;41509;53.108;6.100;2024-01-30T02:34:18;19.55;;;10.40;;
55641;SDS011;41509;53.108;6.100;2024-01-30T02:36:44;18.80;;;10.55;;
55641;SDS011;41509;53.108;6.100;2024-01-30T02:39:13;21.02;;;10.95;;
55641;SDS011;41509;53.108;6.100;2024-01-30T02:41:38;22.73;;;10.80;;
55641;SDS011;41509;53.108;6.100;2024-01-30T02:44:07;21.10;;;11.95;;
55641;SDS011;41509;53.108;6.100;2024-01-30T02:46:32;20.13;;;11.47;;
55641;SDS011;41509;53.108;6.100;2024-01-30T02:48:58;22.97;;;10.97;;
55641;SDS011;41509;53.108;6.100;2024-01-30T02:51:24;19.07;;;10.87;;
55641;SDS011;41509;53.108;6.100;2024-01-30T02:53:49;20.97;;;11.33;;
55641;SDS011;41509;53.108;6.100;2024-01-30T02:56:15;19.70;;;10.73;;
55641;SDS011;41509;53.108;6.100;2024-01-30T02:58:40;20.93;;;11.57;;
55641;SDS011;41509;53.108;6.100;2024-01-30T03:01:06;20.70;;;11.50;;
55641;SDS011;41509;53.108;6.100;2024-01-30T03:03:32;22.13;;;11.15;;
55641;SDS011;41509;53.108;6.100;2024-01-30T03:06:00;23.70;;;12.02;;
55641;SDS011;41509;53.108;6.100;2024-01-30T03:08:25;18.90;;;10.77;;
55641;SDS011;41509;53.108;6.100;2024-01-30T03:10:51;19.87;;;11.47;;
55641;SDS011;41509;53.108;6.100;2024-01-30T03:13:17;21.53;;;10.93;;
55641;SDS011;41509;53.108;6.100;2024-01-30T03:15:42;16.90;;;10.60;;
55641;SDS011;41509;53.108;6.100;2024-01-30T03:18:08;17.40;;;10.47;;
55641;SDS011;41509;53.108;6.100;2024-01-30T03:20:33;22.63;;;11.53;;
55641;SDS011;41509;53.108;6.100;2024-01-30T03:22:59;21.70;;;10.77;;
55641;SDS011;41509;53.108;6.100;2024-01-30T03:25:25;21.48;;;10.88;;
55641;SDS011;41509;53.108;6.100;2024-01-30T03:27:51;16.70;;;9.60;;
55641;SDS011;41509;53.108;6.100;2024-01-30T03:30:17;19.53;;;10.73;;
55641;SDS011;41509;53.108;6.100;2024-01-30T03:32:43;18.65;;;10.30;;
55641;SDS011;41509;53.108;6.100;2024-01-30T03:35:09;18.98;;;10.43;;
55641;SDS011;41509;53.108;6.100;2024-01-30T03:37:35;21.55;;;10.18;;
55641;SDS011;41509;53.108;6.100;2024-01-30T03:40:01;18.87;;;9.80;;
55641;SDS011;41509;53.108;6.100;2024-01-30T03:42:27;18.98;;;10.93;;
55641;SDS011;41509;53.108;6.100;2024-01-30T03:44:52;23.43;;;10.83;;
55641;SDS011;41509;53.108;6.100;2024-01-30T03:47:18;21.13;;;10.90;;
55641;SDS011;41509;53.108;6.100;2024-01-30T03:49:47;20.42;;;10.95;;
55641;SDS011;41509;53.108;6.100;2024-01-30T03:52:13;20.33;;;10.47;;
55641;SDS011;41509;53.108;6.100;2024-01-30T03:54:39;24.80;;;11.33;;
55641;SDS011;41509;53.108;6.100;2024-01-30T03:57:07;17.48;;;10.20;;
55641;SDS011;41509;53.108;6.100;2024-01-30T03:59:33;17.60;;;10.40;;
55641;SDS011;41509;53.108;6.100;2024-01-30T04:01:59;17.67;;;9.90;;
55641;SDS011;41509;53.108;6.100;2024-01-30T04:04:25;18.60;;;9.93;;
55641;SDS011;41509;53.108;6.100;2024-01-30T04:06:50;19.07;;;10.07;;
55641;SDS011;41509;53.108;6.100;2024-01-30T04:09:16;20.10;;;10.93;;
55641;SDS011;41509;53.108;6.100;2024-01-30T04:11:41;19.20;;;10.43;;
55641;SDS011;41509;53.108;6.100;2024-01-30T04:14:08;16.95;;;10.15;;
55641;SDS011;41509;53.108;6.100;2024-01-30T04:16:33;24.42;;;11.32;;
55641;SDS011;41509;53.108;6.100;2024-01-30T04:19:01;22.38;;;10.23;;
55641;SDS011;41509;53.108;6.100;2024-01-30T04:21:27;19.20;;;10.47;;
55641;SDS011;41509;53.108;6.100;2024-01-30T04:23:53;17.07;;;9.63;;
55641;SDS011;41509;53.108;6.100;2024-01-30T04:26:18;17.70;;;8.80;;
55641;SDS011;41509;53.108;6.100;2024-01-30T04:28:44;17.60;;;9.60;;
55641;SDS011;41509;53.108;6.100;2024-01-30T04:31:13;19.63;;;10.18;;
55641;SDS011;41509;53.108;6.100;2024-01-30T04:33:38;16.33;;;9.13;;
55641;SDS011;41509;53.108;6.100;2024-01-30T04:36:04;19.43;;;9.70;;
55641;SDS011;41509;53.108;6.100;2024-01-30T04:38:34;17.63;;;10.02;;
55641;SDS011;41509;53.108;6.100;2024-01-30T04:40:59;20.53;;;10.80;;
55641;SDS011;41509;53.108;6.100;2024-01-30T04:43:25;21.23;;;10.03;;
55641;SDS011;41509;53.108;6.100;2024-01-30T04:45:51;23.08;;;11.05;;
55641;SDS011;41509;53.108;6.100;2024-01-30T04:48:17;16.40;;;9.47;;
55641;SDS011;41509;53.108;6.100;2024-01-30T04:50:42;17.03;;;9.57;;
55641;SDS011;41509;53.108;6.100;2024-01-30T04:53:08;19.63;;;10.03;;
55641;SDS011;41509;53.108;6.100;2024-01-30T04:55:36;16.27;;;9.90;;
55641;SDS011;41509;53.108;6.100;2024-01-30T04:58:02;17.38;;;9.55;;
55641;SDS011;41509;53.108;6.100;2024-01-30T05:00:27;16.13;;;9.43;;
55641;SDS011;41509;53.108;6.100;2024-01-30T05:02:55;16.43;;;9.50;;
55641;SDS011;41509;53.108;6.100;2024-01-30T05:05:21;17.60;;;9.77;;
55641;SDS011;41509;53.108;6.100;2024-01-30T05:07:47;19.10;;;8.60;;
55641;SDS011;41509;53.108;6.100;2024-01-30T05:10:15;13.43;;;8.07;;
55641;SDS011;41509;53.108;6.100;2024-01-30T05:12:43;14.90;;;9.52;;
55641;SDS011;41509;53.108;6.100;2024-01-30T05:15:09;17.43;;;8.90;;
55641;SDS011;41509;53.108;6.100;2024-01-30T05:17:34;21.17;;;9.17;;
55641;SDS011;41509;53.108;6.100;2024-01-30T05:20:00;18.53;;;8.83;;
55641;SDS011;41509;53.108;6.100;2024-01-30T05:22:26;14.87;;;8.37;;
55641;SDS011;41509;53.108;6.100;2024-01-30T05:24:54;17.70;;;9.03;;
55641;SDS011;41509;53.108;6.100;2024-01-30T05:27:19;15.65;;;8.23;;
55641;SDS011;41509;53.108;6.100;2024-01-30T05:29:45;14.37;;;8.57;;
55641;SDS011;41509;53.108;6.100;2024-01-30T05:32:11;19.93;;;8.70;;
55641;SDS011;41509;53.108;6.100;2024-01-30T05:34:36;13.67;;;8.37;;
55641;SDS011;41509;53.108;6.100;2024-01-30T05:37:02;13.10;;;7.67;;
55641;SDS011;41509;53.108;6.100;2024-01-30T05:39:28;13.88;;;7.40;;
55641;SDS011;41509;53.108;6.100;2024-01-30T05:41:54;15.38;;;8.90;;
55641;SDS011;41509;53.108;6.100;2024-01-30T05:44:20;15.07;;;8.70;;
55641;SDS011;41509;53.108;6.100;2024-01-30T05:46:45;16.37;;;7.33;;
55641;SDS011;41509;53.108;6.100;2024-01-30T05:49:11;15.70;;;8.43;;
55641;SDS011;41509;53.108;6.100;2024-01-30T05:51:37;14.53;;;8.47;;
55641;SDS011;41509;53.108;6.100;2024-01-30T05:54:02;14.60;;;8.20;;
55641;SDS011;41509;53.108;6.100;2024-01-30T05:56:29;19.02;;;8.50;;
55641;SDS011;41509;53.108;6.100;2024-01-30T05:58:55;16.17;;;8.60;;
55641;SDS011;41509;53.108;6.100;2024-01-30T06:01:20;14.37;;;8.70;;
55641;SDS011;41509;53.108;6.100;2024-01-30T06:03:46;17.23;;;8.30;;
55641;SDS011;41509;53.108;6.100;2024-01-30T06:06:12;14.83;;;8.77;;
55641;SDS011;41509;53.108;6.100;2024-01-30T06:08:40;15.00;;;9.15;;
55641;SDS011;41509;53.108;6.100;2024-01-30T06:11:10;16.38;;;7.90;;
55641;SDS011;41509;53.108;6.100;2024-01-30T06:13:36;28.90;;;9.60;;
55641;SDS011;41509;53.108;6.100;2024-01-30T06:16:02;14.83;;;9.30;;
55641;SDS011;41509;53.108;6.100;2024-01-30T06:18:28;17.60;;;8.80;;
55641;SDS011;41509;53.108;6.100;2024-01-30T06:20:55;13.85;;;8.10;;
55641;SDS011;41509;53.108;6.100;2024-01-30T06:23:21;16.97;;;8.87;;
55641;SDS011;41509;53.108;6.100;2024-01-30T06:25:46;18.00;;;8.93;;
55641;SDS011;41509;53.108;6.100;2024-01-30T06:28:12;15.60;;;9.23;;
55641;SDS011;41509;53.108;6.100;2024-01-30T06:30:40;17.13;;;8.93;;
55641;SDS011;41509;53.108;6.100;2024-01-30T06:33:06;14.93;;;8.30;;
55641;SDS011;41509;53.108;6.100;2024-01-30T06:35:36;15.93;;;9.18;;
55641;SDS011;41509;53.108;6.100;2024-01-30T06:38:04;19.20;;;9.60;;
55641;SDS011;41509;53.108;6.100;2024-01-30T06:40:30;16.37;;;8.90;;
55641;SDS011;41509;53.108;6.100;2024-01-30T06:42:56;17.00;;;8.93;;
55641;SDS011;41509;53.108;6.100;2024-01-30T06:45:21;14.73;;;8.10;;
55641;SDS011;41509;53.108;6.100;2024-01-30T06:47:47;13.90;;;7.85;;
55641;SDS011;41509;53.108;6.100;2024-01-30T06:50:13;14.67;;;8.40;;
55641;SDS011;41509;53.108;6.100;2024-01-30T06:52:40;20.48;;;8.65;;
55641;SDS011;41509;53.108;6.100;2024-01-30T06:55:09;17.23;;;8.57;;
55641;SDS011;41509;53.108;6.100;2024-01-30T06:57:35;16.42;;;8.90;;
55641;SDS011;41509;53.108;6.100;2024-01-30T07:00:00;18.50;;;8.43;;
55641;SDS011;41509;53.108;6.100;2024-01-30T07:02:26;16.57;;;8.10;;
55641;SDS011;41509;53.108;6.100;2024-01-30T07:04:52;13.77;;;8.27;;
55641;SDS011;41509;53.108;6.100;2024-01-30T07:07:20;15.75;;;7.65;;
55641;SDS011;41509;53.108;6.100;2024-01-30T07:09:47;14.35;;;8.30;;
55641;SDS011;41509;53.108;6.100;2024-01-30T07:12:17;13.60;;;8.05;;
55641;SDS011;41509;53.108;6.100;2024-01-30T07:14:43;19.43;;;8.77;;
55641;SDS011;41509;53.108;6.100;2024-01-30T07:17:08;13.93;;;7.47;;
55641;SDS011;41509;53.108;6.100;2024-01-30T07:19:37;12.45;;;7.38;;
55641;SDS011;41509;53.108;6.100;2024-01-30T07:22:03;16.87;;;7.70;;
55641;SDS011;41509;53.108;6.100;2024-01-30T07:24:29;15.18;;;8.20;;
55641;SDS011;41509;53.108;6.100;2024-01-30T07:26:55;17.63;;;8.40;;
55641;SDS011;41509;53.108;6.100;2024-01-30T07:29:23;14.85;;;7.70;;
55641;SDS011;41509;53.108;6.100;2024-01-30T07:31:49;16.67;;;7.73;;
55641;SDS011;41509;53.108;6.100;2024-01-30T07:34:15;12.68;;;7.65;;
55641;SDS011;41509;53.108;6.100;2024-01-30T07:36:40;15.50;;;7.83;;
55641;SDS011;41509;53.108;6.100;2024-01-30T07:39:06;17.00;;;7.82;;
55641;SDS011;41509;53.108;6.100;2024-01-30T07:41:32;17.30;;;8.23;;
55641;SDS011;41509;53.108;6.100;2024-01-30T07:43:58;14.50;;;7.80;;
55641;SDS011;41509;53.108;6.100;2024-01-30T07:46:23;18.30;;;8.07;;
55641;SDS011;41509;53.108;6.100;2024-01-30T07:48:49;14.33;;;8.03;;
55641;SDS011;41509;53.108;6.100;2024-01-30T07:51:18;15.43;;;7.72;;
55641;SDS011;41509;53.108;6.100;2024-01-30T07:53:43;16.40;;;7.93;;
55641;SDS011;41509;53.108;6.100;2024-01-30T07:56:10;13.00;;;7.13;;
55641;SDS011;41509;53.108;6.100;2024-01-30T07:58:36;14.90;;;7.73;;
55641;SDS011;41509;53.108;6.100;2024-01-30T08:01:02;12.07;;;7.65;;
55641;SDS011;41509;53.108;6.100;2024-01-30T08:03:28;12.37;;;7.07;;
55641;SDS011;41509;53.108;6.100;2024-01-30T08:05:54;15.80;;;7.43;;
55641;SDS011;41509;53.108;6.100;2024-01-30T08:08:20;13.68;;;7.32;;
55641;SDS011;41509;53.108;6.100;2024-01-30T08:10:46;17.57;;;8.33;;
55641;SDS011;41509;53.108;6.100;2024-01-30T08:13:11;12.63;;;6.97;;
55641;SDS011;41509;53.108;6.100;2024-01-30T08:15:37;14.73;;;8.03;;
55641;SDS011;41509;53.108;6.100;2024-01-30T08:18:03;14.43;;;6.90;;
55641;SDS011;41509;53.108;6.100;2024-01-30T08:22:55;13.23;;;6.95;;
55641;SDS011;41509;53.108;6.100;2024-01-30T08:25:20;11.73;;;6.93;;
55641;SDS011;41509;53.108;6.100;2024-01-30T08:27:46;13.77;;;8.05;;
55641;SDS011;41509;53.108;6.100;2024-01-30T08:30:12;11.37;;;7.00;;
55641;SDS011;41509;53.108;6.100;2024-01-30T08:32:38;15.93;;;7.18;;
55641;SDS011;41509;53.108;6.100;2024-01-30T08:35:04;12.85;;;7.40;;
55641;SDS011;41509;53.108;6.100;2024-01-30T08:37:30;21.30;;;8.15;;
55641;SDS011;41509;53.108;6.100;2024-01-30T08:39:56;13.97;;;6.83;;
55641;SDS011;41509;53.108;6.100;2024-01-30T08:42:22;11.90;;;6.85;;
55641;SDS011;41509;53.108;6.100;2024-01-30T08:44:48;13.40;;;7.38;;
55641;SDS011;41509;53.108;6.100;2024-01-30T08:47:16;11.63;;;6.80;;
55641;SDS011;41509;53.108;6.100;2024-01-30T08:49:42;14.27;;;7.47;;
55641;SDS011;41509;53.108;6.100;2024-01-30T08:52:09;15.95;;;7.35;;
55641;SDS011;41509;53.108;6.100;2024-01-30T08:54:35;17.50;;;7.82;;
55641;SDS011;41509;53.108;6.100;2024-01-30T08:57:01;12.50;;;7.75;;
55641;SDS011;41509;53.108;6.100;2024-01-30T08:59:27;13.57;;;7.05;;
55641;SDS011;41509;53.108;6.100;2024-01-30T09:01:53;19.08;;;7.85;;
55641;SDS011;41509;53.108;6.100;2024-01-30T09:04:20;13.95;;;7.35;;
55641;SDS011;41509;53.108;6.100;2024-01-30T09:09:13;13.32;;;6.95;;
55641;SDS011;41509;53.108;6.100;2024-01-30T09:11:39;18.63;;;8.60;;
55641;SDS011;41509;53.108;6.100;2024-01-30T09:14:05;13.75;;;7.88;;
55641;SDS011;41509;53.108;6.100;2024-01-30T09:16:31;13.65;;;7.20;;
55641;SDS011;41509;53.108;6.100;2024-01-30T09:18:56;14.13;;;7.27;;
55641;SDS011;41509;53.108;6.100;2024-01-30T09:21:22;14.10;;;7.60;;
55641;SDS011;41509;53.108;6.100;2024-01-30T09:23:48;21.10;;;8.27;;
55641;SDS011;41509;53.108;6.100;2024-01-30T09:26:14;18.00;;;8.70;;
55641;SDS011;41509;53.108;6.100;2024-01-30T09:28:40;14.70;;;7.63;;
55641;SDS011;41509;53.108;6.100;2024-01-30T09:31:10;15.57;;;7.93;;
55641;SDS011;41509;53.108;6.100;2024-01-30T09:33:37;15.60;;;7.07;;
55641;SDS011;41509;53.108;6.100;2024-01-30T09:36:05;17.00;;;7.40;;
55641;SDS011;41509;53.108;6.100;2024-01-30T09:38:31;16.83;;;7.38;;
55641;SDS011;41509;53.108;6.100;2024-01-30T09:40:57;12.53;;;7.30;;
55641;SDS011;41509;53.108;6.100;2024-01-30T09:43:29;14.32;;;7.10;;
55641;SDS011;41509;53.108;6.100;2024-01-30T09:45:59;14.25;;;7.65;;
55641;SDS011;41509;53.108;6.100;2024-01-30T09:48:29;14.73;;;8.10;;
55641;SDS011;41509;53.108;6.100;2024-01-30T09:50:56;14.20;;;6.97;;
55641;SDS011;41509;53.108;6.100;2024-01-30T09:53:23;15.73;;;8.18;;
55641;SDS011;41509;53.108;6.100;2024-01-30T09:55:49;11.40;;;6.85;;
55641;SDS011;41509;53.108;6.100;2024-01-30T09:58:16;14.43;;;6.78;;
55641;SDS011;41509;53.108;6.100;2024-01-30T10:00:42;13.50;;;7.63;;
55641;SDS011;41509;53.108;6.100;2024-01-30T10:03:08;16.17;;;8.27;;
55641;SDS011;41509;53.108;6.100;2024-01-30T10:05:35;18.77;;;8.02;;
55641;SDS011;41509;53.108;6.100;2024-01-30T10:08:05;15.73;;;6.90;;
55641;SDS011;41509;53.108;6.100;2024-01-30T10:10:34;18.80;;;7.82;;
55641;SDS011;41509;53.108;6.100;2024-01-30T10:15:27;12.63;;;6.43;;
55641;SDS011;41509;53.108;6.100;2024-01-30T10:17:54;19.85;;;8.15;;
55641;SDS011;41509;53.108;6.100;2024-01-30T10:20:20;11.98;;;7.13;;
55641;SDS011;41509;53.108;6.100;2024-01-30T10:22:47;17.55;;;7.93;;
55641;SDS011;41509;53.108;6.100;2024-01-30T10:25:14;13.15;;;7.32;;
55641;SDS011;41509;53.108;6.100;2024-01-30T10:27:40;13.52;;;7.30;;
55641;SDS011;41509;53.108;6.100;2024-01-30T10:30:07;17.87;;;7.23;;
55641;SDS011;41509;53.108;6.100;2024-01-30T10:34:58;13.15;;;6.25;;
55641;SDS011;41509;53.108;6.100;2024-01-30T10:37:25;10.85;;;5.85;;
55641;SDS011;41509;53.108;6.100;2024-01-30T10:42:18;17.52;;;7.82;;
55641;SDS011;41509;53.108;6.100;2024-01-30T10:44:48;9.93;;;5.93;;
55641;SDS011;41509;53.108;6.100;2024-01-30T10:47:43;13.95;;;6.72;;
55641;SDS011;41509;53.108;6.100;2024-01-30T10:50:13;11.82;;;5.95;;
55641;SDS011;41509;53.108;6.100;2024-01-30T10:52:40;21.77;;;6.43;;
55641;SDS011;41509;53.108;6.100;2024-01-30T10:55:09;15.77;;;5.53;;
55641;SDS011;41509;53.108;6.100;2024-01-30T10:57:35;12.05;;;5.45;;
55641;SDS011;41509;53.108;6.100;2024-01-30T11:00:05;10.65;;;5.38;;
55641;SDS011;41509;53.108;6.100;2024-01-30T11:02:40;18.80;;;6.10;;
55641;SDS011;41509;53.108;6.100;2024-01-30T11:05:08;13.82;;;5.20;;
55641;SDS011;41509;53.108;6.100;2024-01-30T11:07:34;13.27;;;5.28;;
55641;SDS011;41509;53.108;6.100;2024-01-30T11:10:01;15.05;;;4.78;;
55641;SDS011;41509;53.108;6.100;2024-01-30T11:12:32;10.48;;;4.75;;
55641;SDS011;41509;53.108;6.100;2024-01-30T11:17:45;17.33;;;3.60;;
55641;SDS011;41509;53.108;6.100;2024-01-30T11:20:25;12.77;;;2.85;;
55641;SDS011;41509;53.108;6.100;2024-01-30T11:22:56;7.47;;;2.40;;
55641;SDS011;41509;53.108;6.100;2024-01-30T11:25:23;7.93;;;2.42;;
55641;SDS011;41509;53.108;6.100;2024-01-30T11:27:50;6.68;;;2.55;;
55641;SDS011;41509;53.108;6.100;2024-01-30T11:30:20;8.90;;;1.65;;
55641;SDS011;41509;53.108;6.100;2024-01-30T11:33:07;5.50;;;1.67;;
55641;SDS011;41509;53.108;6.100;2024-01-30T11:38:06;3.63;;;1.83;;
55641;SDS011;41509;53.108;6.100;2024-01-30T11:40:34;4.65;;;0.98;;
55641;SDS011;41509;53.108;6.100;2024-01-30T11:43:01;4.80;;;1.17;;
55641;SDS011;41509;53.108;6.100;2024-01-30T11:45:30;3.80;;;1.13;;
55641;SDS011;41509;53.108;6.100;2024-01-30T11:50:22;3.03;;;1.02;;
55641;SDS011;41509;53.108;6.100;2024-01-30T11:52:48;3.20;;;0.80;;
55641;SDS011;41509;53.108;6.100;2024-01-30T11:55:14;4.55;;;1.45;;
55641;SDS011;41509;53.108;6.100;2024-01-30T11:57:40;4.13;;;1.10;;
55641;SDS011;41509;53.108;6.100;2024-01-30T12:00:13;2.65;;;0.90;;
55641;SDS011;41509;53.108;6.100;2024-01-30T12:02:40;3.10;;;0.90;;
55641;SDS011;41509;53.108;6.100;2024-01-30T12:05:06;4.07;;;0.98;;
55641;SDS011;41509;53.108;6.100;2024-01-30T12:07:33;2.55;;;1.10;;
55641;SDS011;41509;53.108;6.100;2024-01-30T12:09:58;5.60;;;0.88;;
55641;SDS011;41509;53.108;6.100;2024-01-30T12:12:25;5.00;;;1.13;;
55641;SDS011;41509;53.108;6.100;2024-01-30T12:14:52;5.95;;;1.60;;
55641;SDS011;41509;53.108;6.100;2024-01-30T12:17:27;6.00;;;0.82;;
55641;SDS011;41509;53.108;6.100;2024-01-30T12:22:29;3.13;;;0.80;;
55641;SDS011;41509;53.108;6.100;2024-01-30T12:24:55;6.28;;;1.17;;
55641;SDS011;41509;53.108;6.100;2024-01-30T12:27:21;7.25;;;1.30;;
55641;SDS011;41509;53.108;6.100;2024-01-30T12:29:47;2.53;;;1.02;;
55641;SDS011;41509;53.108;6.100;2024-01-30T12:32:15;2.90;;;0.80;;
55641;SDS011;41509;53.108;6.100;2024-01-30T12:34:42;4.93;;;0.88;;
55641;SDS011;41509;53.108;6.100;2024-01-30T12:37:07;2.60;;;1.30;;
55641;SDS011;41509;53.108;6.100;2024-01-30T12:39:34;2.95;;;0.82;;
55641;SDS011;41509;53.108;6.100;2024-01-30T12:42:00;3.05;;;1.33;;
55641;SDS011;41509;53.108;6.100;2024-01-30T12:44:26;2.60;;;0.57;;
55641;SDS011;41509;53.108;6.100;2024-01-30T12:46:52;2.38;;;0.50;;
55641;SDS011;41509;53.108;6.100;2024-01-30T12:49:19;2.78;;;1.45;;
55641;SDS011;41509;53.108;6.100;2024-01-30T12:51:46;3.78;;;0.95;;
55641;SDS011;41509;53.108;6.100;2024-01-30T12:54:12;2.80;;;1.33;;
55641;SDS011;41509;53.108;6.100;2024-01-30T12:56:38;3.25;;;0.93;;
55641;SDS011;41509;53.108;6.100;2024-01-30T12:59:04;2.43;;;0.57;;
55641;SDS011;41509;53.108;6.100;2024-01-30T13:01:29;1.63;;;0.50;;
55641;SDS011;41509;53.108;6.100;2024-01-30T13:03:55;2.63;;;0.77;;
55641;SDS011;41509;53.108;6.100;2024-01-30T13:06:22;2.65;;;0.70;;
55641;SDS011;41509;53.108;6.100;2024-01-30T13:08:48;2.20;;;0.80;;
55641;SDS011;41509;53.108;6.100;2024-01-30T13:11:14;2.67;;;0.60;;
55641;SDS011;41509;53.108;6.100;2024-01-30T13:13:39;2.23;;;0.93;;
55641;SDS011;41509;53.108;6.100;2024-01-30T13:16:05;2.10;;;0.80;;
55641;SDS011;41509;53.108;6.100;2024-01-30T13:18:31;3.28;;;1.08;;
55641;SDS011;41509;53.108;6.100;2024-01-30T13:20:57;5.60;;;1.00;;
55641;SDS011;41509;53.108;6.100;2024-01-30T13:23:22;2.93;;;1.13;;
55641;SDS011;41509;53.108;6.100;2024-01-30T13:25:48;3.70;;;1.03;;
55641;SDS011;41509;53.108;6.100;2024-01-30T13:28:14;5.30;;;0.77;;
55641;SDS011;41509;53.108;6.100;2024-01-30T13:30:40;2.75;;;0.90;;
55641;SDS011;41509;53.108;6.100;2024-01-30T13:33:05;4.70;;;1.43;;
55641;SDS011;41509;53.108;6.100;2024-01-30T13:35:31;3.60;;;1.10;;
55641;SDS011;41509;53.108;6.100;2024-01-30T13:37:57;1.25;;;0.75;;
55641;SDS011;41509;53.108;6.100;2024-01-30T13:40:23;4.38;;;0.90;;
55641;SDS011;41509;53.108;6.100;2024-01-30T13:42:49;4.47;;;1.05;;
55641;SDS011;41509;53.108;6.100;2024-01-30T13:45:14;4.93;;;0.80;;
55641;SDS011;41509;53.108;6.100;2024-01-30T13:47:40;5.87;;;1.17;;
55641;SDS011;41509;53.108;6.100;2024-01-30T13:50:06;4.05;;;0.90;;
55641;SDS011;41509;53.108;6.100;2024-01-30T13:52:33;4.47;;;1.00;;
55641;SDS011;41509;53.108;6.100;2024-01-30T13:54:59;1.80;;;0.70;;
55641;SDS011;41509;53.108;6.100;2024-01-30T13:57:24;6.13;;;0.83;;
55641;SDS011;41509;53.108;6.100;2024-01-30T13:59:50;2.75;;;1.08;;
55641;SDS011;41509;53.108;6.100;2024-01-30T14:02:16;3.30;;;0.97;;
55641;SDS011;41509;53.108;6.100;2024-01-30T14:04:42;2.23;;;1.27;;
55641;SDS011;41509;53.108;6.100;2024-01-30T14:09:34;2.00;;;1.00;;
55641;SDS011;41509;53.108;6.100;2024-01-30T14:12:00;3.72;;;1.35;;
55641;SDS011;41509;53.108;6.100;2024-01-30T14:14:26;3.30;;;1.27;;
55641;SDS011;41509;53.108;6.100;2024-01-30T14:16:52;2.97;;;1.33;;
55641;SDS011;41509;53.108;6.100;2024-01-30T14:19:18;6.37;;;1.33;;
55641;SDS011;41509;53.108;6.100;2024-01-30T14:21:43;5.20;;;1.42;;
55641;SDS011;41509;53.108;6.100;2024-01-30T14:24:09;3.97;;;1.53;;
55641;SDS011;41509;53.108;6.100;2024-01-30T14:26:35;10.13;;;2.10;;
55641;SDS011;41509;53.108;6.100;2024-01-30T14:29:01;4.60;;;1.42;;
55641;SDS011;41509;53.108;6.100;2024-01-30T14:31:27;9.20;;;1.83;;
55641;SDS011;41509;53.108;6.100;2024-01-30T14:33:53;2.70;;;1.50;;
55641;SDS011;41509;53.108;6.100;2024-01-30T14:36:20;4.72;;;1.40;;
55641;SDS011;41509;53.108;6.100;2024-01-30T14:38:46;4.05;;;1.63;;
55641;SDS011;41509;53.108;6.100;2024-01-30T14:41:11;3.90;;;1.23;;
55641;SDS011;41509;53.108;6.100;2024-01-30T14:43:37;7.33;;;1.43;;
55641;SDS011;41509;53.108;6.100;2024-01-30T14:46:03;2.97;;;1.30;;
55641;SDS011;41509;53.108;6.100;2024-01-30T14:48:31;3.67;;;2.00;;
55641;SDS011;41509;53.108;6.100;2024-01-30T14:50:57;3.83;;;1.40;;
55641;SDS011;41509;53.108;6.100;2024-01-30T14:53:25;6.03;;;1.67;;
55641;SDS011;41509;53.108;6.100;2024-01-30T14:55:52;4.90;;;1.77;;